Time;durP1;ratioP1;P1;durP2;ratioP2;P2;SDS_P1;SDS_P2;PMS_P1;PMS_P2;Temp;Humidity;BMP_temperature;BMP_pressure;BME280_temperature;BME280_humidity;BME280_pressure;Samples;Min_cycle;Max_cycle;Signal;HPM_P1;HPM_P2
2022/04/11 00:01:44;;;;;;;11.15;2.92;;;;;;;17.33;36.78;101148.91;5052290;28;20078;-56
2022/04/11 00:04:10;;;;;;;12.50;2.95;;;;;;;17.42;37.16;101140.13;5053489;28;20429;-56
2022/04/11 00:06:36;;;;;;;15.05;5.68;;;;;;;17.70;36.19;101138.41;5054585;28;20392;-57
2022/04/11 00:09:03;;;;;;;13.75;4.88;;;;;;;17.59;37.03;101150.97;5051811;28;20025;-57
2022/04/11 00:11:29;;;;;;;12.55;3.83;;;;;;;17.74;36.91;101160.44;5033906;28;20029;-57
2022/04/11 00:13:55;;;;;;;12.50;3.22;;;;;;;17.38;37.09;101151.69;5049354;28;20035;-57
2022/04/11 00:16:21;;;;;;;13.68;3.30;;;;;;;17.12;37.52;101151.22;5052561;28;20029;-57
2022/04/11 00:18:47;;;;;;;16.08;4.38;;;;;;;16.93;38.54;101140.81;5053350;28;20021;-57
2022/04/11 00:21:14;;;;;;;8.27;2.72;;;;;;;16.97;38.59;101148.22;5053732;28;20037;-57
2022/04/11 00:23:40;;;;;;;8.60;2.88;;;;;;;17.22;38.10;101144.38;5051111;28;20104;-58
2022/04/11 00:26:06;;;;;;;11.65;3.00;;;;;;;17.29;38.15;101143.13;5053561;28;20112;-58
2022/04/11 00:28:32;;;;;;;14.65;3.80;;;;;;;17.08;38.48;101150.03;5037622;28;20032;-58
2022/04/11 00:30:59;;;;;;;8.88;3.38;;;;;;;17.06;38.45;101146.78;5048916;28;20029;-58
2022/04/11 00:33:25;;;;;;;7.65;2.60;;;;;;;16.91;39.03;101143.78;5051804;28;20029;-58
2022/04/11 00:35:51;;;;;;;12.55;3.40;;;;;;;16.66;39.47;101140.50;5041186;28;20044;-58
2022/04/11 00:38:17;;;;;;;12.98;3.25;;;;;;;16.66;39.22;101133.25;5033308;28;20540;-58
2022/04/11 00:40:43;;;;;;;11.13;3.40;;;;;;;16.32;40.41;101146.59;5052099;28;20025;-58
2022/04/11 00:43:10;;;;;;;21.83;7.90;;;;;;;16.34;40.44;101139.06;5045875;28;20029;-56
2022/04/11 00:45:36;;;;;;;12.27;3.35;;;;;;;16.29;40.69;101138.13;5044763;28;20392;-56
2022/04/11 00:48:03;;;;;;;9.73;3.28;;;;;;;16.23;41.14;101142.59;5053045;28;20468;-56
2022/04/11 00:50:29;;;;;;;12.68;3.40;;;;;;;16.37;41.54;101149.38;5052308;28;20072;-57
2022/04/11 00:52:57;;;;;;;11.25;3.85;;;;;;;16.32;41.51;101157.41;5052417;28;20112;-57
2022/04/11 00:55:24;;;;;;;10.90;2.90;;;;;;;16.48;41.14;101138.78;5027841;28;20030;-57
2022/04/11 00:57:51;;;;;;;13.82;3.35;;;;;;;16.47;41.12;101147.97;5033547;28;20096;-57
2022/04/11 01:00:19;;;;;;;9.68;2.78;;;;;;;16.38;41.63;101144.81;5044281;28;20025;-57
2022/04/11 01:02:45;;;;;;;12.88;3.55;;;;;;;16.42;41.52;101151.38;5040917;28;20152;-57
2022/04/11 01:05:13;;;;;;;11.95;3.28;;;;;;;16.39;41.48;101145.63;5033449;28;20040;-57
2022/04/11 01:07:40;;;;;;;8.73;2.85;;;;;;;16.22;41.64;101140.13;5033364;28;20061;-58
2022/04/11 01:10:08;;;;;;;13.40;3.35;;;;;;;16.12;41.54;101139.91;5032745;28;20128;-57
2022/04/11 01:12:34;;;;;;;14.85;4.10;;;;;;;16.19;41.39;101146.00;5041381;28;20032;-57
2022/04/11 01:15:00;;;;;;;10.43;3.55;;;;;;;16.02;41.47;101133.19;5039700;28;20059;-57
2022/04/11 01:17:37;;;;;;;10.90;3.13;;;;;;;15.94;41.46;101143.53;5053198;28;20083;-57
2022/04/11 01:20:12;;;;;;;7.40;2.35;;;;;;;15.83;41.82;101137.91;5051309;28;20066;-57
2022/04/11 01:22:39;;;;;;;11.43;3.45;;;;;;;15.61;42.53;101133.25;5051883;28;20029;-57
2022/04/11 01:25:06;;;;;;;13.70;4.43;;;;;;;15.52;42.84;101133.59;5050485;28;20053;-54
2022/04/11 01:27:32;;;;;;;9.73;2.75;;;;;;;15.50;43.25;101126.78;5053067;28;20033;-54
2022/04/11 01:29:59;;;;;;;13.00;4.55;;;;;;;15.54;43.20;101117.16;5052499;28;20051;-54
2022/04/11 01:32:25;;;;;;;12.77;3.72;;;;;;;15.47;43.57;101119.97;5051962;28;20102;-54
2022/04/11 01:34:52;;;;;;;14.20;3.47;;;;;;;15.38;43.63;101128.63;5048072;28;20036;-55
2022/04/11 01:37:18;;;;;;;12.27;3.25;;;;;;;15.16;44.02;101134.56;5043234;28;20068;-54
2022/04/11 01:39:44;;;;;;;15.00;3.33;;;;;;;14.84;44.57;101127.72;5038074;28;20037;-55
2022/04/11 01:42:10;;;;;;;13.82;3.58;;;;;;;14.79;45.15;101133.78;5046341;28;20025;-55
2022/04/11 01:44:36;;;;;;;11.57;2.70;;;;;;;14.72;44.82;101143.84;5052317;28;20533;-55
2022/04/11 01:47:03;;;;;;;7.88;2.88;;;;;;;14.63;45.49;101142.50;5051000;28;20036;-54
2022/04/11 01:49:29;;;;;;;11.48;2.95;;;;;;;14.46;45.49;101143.06;5031948;28;20022;-55
2022/04/11 01:51:55;;;;;;;10.07;3.33;;;;;;;14.44;45.58;101152.41;5031821;28;20029;-55
2022/04/11 01:54:22;;;;;;;11.60;3.42;;;;;;;14.44;45.64;101155.94;5037335;28;20386;-55
2022/04/11 01:56:48;;;;;;;10.00;3.08;;;;;;;14.44;46.11;101145.16;5052308;28;20353;-55
2022/04/11 01:59:16;;;;;;;11.55;2.28;;;;;;;14.35;45.59;101151.88;5051696;28;20028;-56
2022/04/11 02:01:43;;;;;;;9.52;3.10;;;;;;;14.21;46.32;101153.91;5051663;28;20021;-56
2022/04/11 02:04:10;;;;;;;9.93;2.92;;;;;;;14.10;46.56;101162.69;5052040;28;20032;-56
2022/04/11 02:06:36;;;;;;;12.05;3.22;;;;;;;14.03;46.53;101155.72;5051889;28;20104;-55
2022/04/11 02:09:04;;;;;;;9.27;3.03;;;;;;;13.92;47.21;101163.47;5051446;28;20032;-56
2022/04/11 02:11:30;;;;;;;18.55;3.40;;;;;;;13.80;47.09;101164.41;5051554;28;20033;-55
2022/04/11 02:13:56;;;;;;;15.85;2.80;;;;;;;13.57;48.09;101168.50;5051780;28;20028;-56
2022/04/11 02:16:23;;;;;;;13.50;3.13;;;;;;;13.46;47.92;101175.41;5051679;28;20024;-55
2022/04/11 02:18:49;;;;;;;12.95;3.15;;;;;;;13.54;48.26;101168.09;5051452;28;20427;-56
2022/04/11 02:21:16;;;;;;;7.43;2.80;;;;;;;13.50;48.51;101164.22;5048297;28;20028;-56
2022/04/11 02:23:42;;;;;;;13.27;3.10;;;;;;;13.42;48.78;101167.97;5050759;28;20083;-56
2022/04/11 02:26:08;;;;;;;15.93;2.97;;;;;;;13.33;48.88;101178.19;5051599;28;20043;-54
2022/04/11 02:28:35;;;;;;;8.00;2.65;;;;;;;13.18;48.74;101165.00;5039081;28;20602;-54
2022/04/11 02:31:01;;;;;;;9.88;2.63;;;;;;;13.06;49.21;101168.56;5031684;28;20084;-55
2022/04/11 02:33:27;;;;;;;9.15;2.65;;;;;;;13.12;48.95;101173.09;5031748;28;20432;-56
2022/04/11 02:35:53;;;;;;;12.90;3.08;;;;;;;13.06;49.21;101163.19;5032728;28;20044;-54
2022/04/11 02:38:20;;;;;;;14.07;3.33;;;;;;;13.05;49.08;101165.06;5044671;28;20112;-54
2022/04/11 02:40:46;;;;;;;10.57;2.72;;;;;;;13.11;48.89;101168.75;5056162;28;20112;-54
2022/04/11 02:43:12;;;;;;;10.52;2.63;;;;;;;12.97;49.57;101173.34;5038108;28;20025;-55
2022/04/11 02:45:38;;;;;;;12.45;2.95;;;;;;;12.93;49.87;101169.44;5057933;28;20404;-55
2022/04/11 02:48:05;;;;;;;11.02;2.72;;;;;;;12.90;49.59;101176.06;5042795;28;20057;-54
2022/04/11 02:50:32;;;;;;;9.07;2.42;;;;;;;12.92;49.17;101170.47;5037535;28;20742;-54
2022/04/11 02:52:58;;;;;;;7.28;2.80;;;;;;;12.91;49.33;101180.41;5052615;28;20029;-54
2022/04/11 02:55:24;;;;;;;7.70;2.40;;;;;;;12.74;49.49;101170.34;5057963;28;20120;-53
2022/04/11 02:57:50;;;;;;;8.55;2.45;;;;;;;12.79;49.30;101165.16;5056000;28;20029;-55
2022/04/11 03:00:18;;;;;;;8.23;2.55;;;;;;;12.75;49.40;101170.13;5050379;28;20075;-54
2022/04/11 03:02:44;;;;;;;9.95;3.13;;;;;;;12.81;49.25;101166.59;5046055;28;20045;-53
2022/04/11 03:05:10;;;;;;;8.95;2.65;;;;;;;12.65;50.22;101183.19;5038044;28;20397;-54
2022/04/11 03:07:37;;;;;;;13.23;2.80;;;;;;;12.57;50.04;101180.75;5037824;28;20081;-53
2022/04/11 03:10:04;;;;;;;15.20;2.75;;;;;;;12.71;50.04;101189.56;5046032;28;20039;-54
2022/04/11 03:12:33;;;;;;;8.00;2.25;;;;;;;12.78;49.77;101188.53;5043313;28;20025;-54
2022/04/11 03:15:00;;;;;;;10.02;2.78;;;;;;;12.87;49.41;101197.97;5057306;28;20132;-53
2022/04/11 03:17:26;;;;;;;10.88;2.40;;;;;;;12.88;49.09;101194.28;5057643;28;20056;-55
2022/04/11 03:19:52;;;;;;;12.52;2.47;;;;;;;12.77;49.81;101186.88;5050086;28;20108;-55
2022/04/11 03:22:18;;;;;;;8.73;2.33;;;;;;;12.79;49.71;101194.72;5038136;28;20028;-54
2022/04/11 03:24:44;;;;;;;9.50;2.72;;;;;;;12.64;50.55;101195.78;5038686;28;20108;-54
2022/04/11 03:27:11;;;;;;;7.78;2.90;;;;;;;12.69;50.19;101189.78;5038079;28;20050;-53
2022/04/11 03:29:37;;;;;;;11.85;2.53;;;;;;;12.56;50.29;101195.19;5037383;28;20527;-55
2022/04/11 03:32:07;;;;;;;7.18;2.78;;;;;;;12.67;50.14;101198.06;5051181;23;20582;-55
2022/04/11 03:34:33;;;;;;;9.20;2.78;;;;;;;12.77;49.96;101197.63;5056564;28;20527;-55
2022/04/11 03:36:59;;;;;;;13.18;2.42;;;;;;;12.74;50.14;101197.22;5056688;28;20468;-56
2022/04/11 03:39:25;;;;;;;9.80;3.13;;;;;;;12.76;50.02;101187.91;5057662;28;20402;-55
2022/04/11 03:41:52;;;;;;;12.23;3.13;;;;;;;12.91;49.08;101185.78;5057801;28;20468;-55
2022/04/11 03:44:18;;;;;;;8.35;2.50;;;;;;;12.83;49.48;101185.22;5057636;28;20521;-55
2022/04/11 03:46:44;;;;;;;12.10;2.50;;;;;;;12.66;50.44;101187.53;5047209;28;20041;-54
2022/04/11 03:49:10;;;;;;;10.25;2.20;;;;;;;12.80;50.13;101186.44;5033643;28;20021;-55
2022/04/11 03:51:37;;;;;;;12.15;3.30;;;;;;;12.84;50.19;101189.53;5038355;28;20035;-55
2022/04/11 03:54:03;;;;;;;9.55;2.50;;;;;;;12.83;49.89;101188.72;5054038;28;20059;-55
2022/04/11 03:56:29;;;;;;;10.02;2.70;;;;;;;12.93;49.07;101201.69;5054140;28;20029;-55
2022/04/11 03:58:56;;;;;;;11.23;2.78;;;;;;;13.12;49.66;101195.41;5053424;28;20032;-55
2022/04/11 04:01:22;;;;;;;6.03;2.72;;;;;;;13.04;49.22;101194.81;5039069;28;20112;-55
2022/04/11 04:03:48;;;;;;;7.05;2.22;;;;;;;13.01;49.43;101208.69;5033983;28;20025;-55
2022/04/11 04:06:15;;;;;;;9.98;2.35;;;;;;;12.83;49.44;101204.84;5034124;28;20466;-56
2022/04/11 04:08:41;;;;;;;9.63;2.55;;;;;;;12.92;49.25;101216.97;5038197;28;20083;-56
2022/04/11 04:11:08;;;;;;;8.77;2.13;;;;;;;12.79;49.91;101218.91;5053924;28;20432;-56
2022/04/11 04:13:34;;;;;;;8.40;2.72;;;;;;;12.87;50.06;101227.53;5053881;28;20437;-56
2022/04/11 04:16:00;;;;;;;9.38;2.28;;;;;;;12.68;49.52;101239.16;5053808;28;20033;-55
2022/04/11 04:18:27;;;;;;;14.43;2.65;;;;;;;12.62;49.88;101243.53;5052715;28;20029;-54
2022/04/11 04:20:53;;;;;;;6.78;2.15;;;;;;;12.58;49.82;101236.09;5053209;28;20120;-54
2022/04/11 04:23:19;;;;;;;9.65;3.42;;;;;;;12.34;50.84;101238.41;5052792;28;20480;-55
2022/04/11 04:25:46;;;;;;;10.13;2.83;;;;;;;12.35;50.99;101245.41;5053733;28;20079;-55
2022/04/11 04:28:17;;;;;;;21.70;8.25;;;;;;;12.33;50.73;101241.31;5049404;28;20092;-55
2022/04/11 04:30:45;;;;;;;26.42;8.27;;;;;;;12.41;51.30;101244.56;5033839;28;20038;-54
2022/04/11 04:33:12;;;;;;;14.20;6.15;;;;;;;12.27;51.79;101253.69;5033180;28;20041;-55
2022/04/11 04:35:39;;;;;;;28.85;10.13;;;;;;;12.40;51.42;101256.34;5042477;28;20135;-55
2022/04/11 04:38:05;;;;;;;8.48;2.95;;;;;;;12.31;51.54;101240.66;5053140;28;20028;-56
2022/04/11 04:40:32;;;;;;;6.35;2.75;;;;;;;12.28;50.52;101249.97;5052923;28;20029;-56
2022/04/11 04:42:58;;;;;;;10.88;2.97;;;;;;;12.29;51.38;101243.56;5053340;28;20380;-55
2022/04/11 04:45:24;;;;;;;9.60;3.42;;;;;;;12.28;51.52;101243.78;5052804;28;20037;-55
2022/04/11 04:47:50;;;;;;;9.85;3.28;;;;;;;12.20;51.33;101247.47;5052861;28;20535;-55
2022/04/11 04:50:17;;;;;;;11.48;4.07;;;;;;;12.27;50.96;101234.91;5052594;28;20035;-55
2022/04/11 04:52:43;;;;;;;5.60;2.15;;;;;;;12.17;51.14;101247.91;5053121;28;20025;-55
2022/04/11 04:55:09;;;;;;;4.97;1.77;;;;;;;12.14;52.08;101251.00;5052106;28;20029;-56
2022/04/11 04:57:35;;;;;;;6.72;2.15;;;;;;;12.02;52.26;101258.81;5052668;28;20037;-56
2022/04/11 05:00:03;;;;;;;5.05;1.92;;;;;;;11.90;52.41;101255.09;5051395;28;20033;-55
2022/04/11 05:02:38;;;;;;;7.45;2.35;;;;;;;11.89;52.87;101256.97;5052536;28;20029;-55
2022/04/11 05:05:09;;;;;;;7.63;2.50;;;;;;;11.82;52.84;101258.78;5053107;28;20605;-55
2022/04/11 05:07:36;;;;;;;8.55;2.30;;;;;;;11.87;52.46;101259.00;5052307;28;20033;-55
2022/04/11 05:10:07;;;;;;;7.65;2.40;;;;;;;11.82;52.51;101252.59;5052873;28;20025;-56
2022/04/11 05:12:43;;;;;;;8.75;2.30;;;;;;;11.85;53.23;101253.03;5052563;28;20033;-55
2022/04/11 05:15:10;;;;;;;8.32;2.38;;;;;;;11.79;52.93;101245.78;5052652;28;20032;-56
2022/04/11 05:17:36;;;;;;;7.85;2.20;;;;;;;11.82;53.09;101237.34;5050948;28;20043;-56
2022/04/11 05:20:05;;;;;;;6.35;2.33;;;;;;;11.72;53.71;101230.72;5052619;28;20025;-56
2022/04/11 05:22:31;;;;;;;10.48;2.30;;;;;;;11.74;53.19;101229.47;5052050;28;20548;-55
2022/04/11 05:24:57;;;;;;;9.43;2.85;;;;;;;11.67;53.29;101217.91;5051967;28;20052;-56
2022/04/11 05:27:24;;;;;;;12.00;2.53;;;;;;;11.67;53.30;101214.41;5051682;28;20036;-55
2022/04/11 05:29:50;;;;;;;10.00;2.70;;;;;;;11.59;52.98;101228.81;5041424;28;20025;-56
2022/04/11 05:32:17;;;;;;;8.40;2.17;;;;;;;11.59;52.29;101220.78;5052117;28;20041;-55
2022/04/11 05:34:43;;;;;;;12.32;2.70;;;;;;;11.46;53.35;101218.06;5051641;28;20028;-56
2022/04/11 05:37:11;;;;;;;5.70;2.40;;;;;;;11.49;53.14;101215.81;5052318;28;20108;-56
2022/04/11 05:39:37;;;;;;;7.88;2.03;;;;;;;11.50;53.06;101219.31;5051532;28;20503;-56
2022/04/11 05:42:05;;;;;;;7.05;2.13;;;;;;;11.49;52.96;101220.31;5051567;28;20029;-55
2022/04/11 05:44:31;;;;;;;4.80;2.00;;;;;;;11.47;53.30;101209.00;5051394;28;20036;-56
2022/04/11 05:46:57;;;;;;;7.30;1.70;;;;;;;11.46;53.01;101212.72;5052233;28;20151;-55
2022/04/11 05:49:23;;;;;;;8.68;2.30;;;;;;;11.45;53.19;101205.69;5051019;28;20067;-56
2022/04/11 05:51:50;;;;;;;6.95;2.33;;;;;;;11.48;52.73;101205.28;5052187;28;20130;-56
2022/04/11 05:54:16;;;;;;;5.65;2.00;;;;;;;11.38;53.30;101211.03;5050998;28;20531;-54
2022/04/11 05:56:43;;;;;;;9.15;2.22;;;;;;;11.39;53.17;101212.69;5052373;28;20040;-55
2022/04/11 05:59:09;;;;;;;9.68;2.10;;;;;;;11.56;52.74;101218.50;5050915;28;20067;-55
2022/04/11 06:01:36;;;;;;;10.52;2.20;;;;;;;11.47;52.66;101215.19;5051601;28;20031;-56
2022/04/11 06:04:02;;;;;;;5.80;2.10;;;;;;;11.61;52.44;101224.09;5051422;28;20388;-55
2022/04/11 06:06:28;;;;;;;7.40;1.90;;;;;;;11.72;51.92;101233.41;5051816;28;20017;-55
2022/04/11 06:08:55;;;;;;;11.38;2.53;;;;;;;11.67;52.09;101225.97;5051001;28;20024;-56
2022/04/11 06:11:21;;;;;;;8.10;1.88;;;;;;;11.66;52.15;101197.50;5051424;28;20051;-55
2022/04/11 06:13:47;;;;;;;7.75;2.20;;;;;;;11.76;52.44;101194.38;5051071;28;20099;-55
2022/04/11 06:16:13;;;;;;;8.95;2.00;;;;;;;11.68;52.28;101206.16;5051503;28;20033;-57
2022/04/11 06:18:40;;;;;;;5.47;2.17;;;;;;;11.83;51.84;101217.56;5050798;28;20021;-56
2022/04/11 06:21:06;;;;;;;8.10;2.25;;;;;;;11.67;52.06;101217.91;5051493;28;20111;-55
2022/04/11 06:23:33;;;;;;;4.15;2.13;;;;;;;11.48;52.24;101213.31;5051087;28;20065;-54
2022/04/11 06:26:00;;;;;;;7.53;1.98;;;;;;;11.69;51.80;101202.44;5051713;28;20098;-54
2022/04/11 06:28:26;;;;;;;8.63;3.22;;;;;;;11.52;52.05;101193.94;5044255;28;20389;-54
2022/04/11 06:30:53;;;;;;;7.90;2.05;;;;;;;11.54;52.10;101185.69;5031437;28;20021;-53
2022/04/11 06:33:19;;;;;;;5.65;1.80;;;;;;;11.40;52.50;101197.44;5045015;28;20049;-54
2022/04/11 06:35:45;;;;;;;6.30;2.30;;;;;;;11.46;52.40;101197.44;5051832;28;20025;-53
2022/04/11 06:38:11;;;;;;;4.80;1.58;;;;;;;11.42;52.34;101192.69;5051076;28;20033;-54
2022/04/11 06:40:38;;;;;;;7.15;2.17;;;;;;;11.45;52.76;101189.63;5051806;28;20107;-54
2022/04/11 06:43:04;;;;;;;9.68;2.00;;;;;;;11.48;51.83;101189.19;5050654;28;20117;-54
2022/04/11 06:45:30;;;;;;;15.50;3.47;;;;;;;11.55;51.62;101196.25;5051441;28;20028;-54
2022/04/11 06:47:56;;;;;;;7.97;1.95;;;;;;;11.56;51.66;101199.75;5050504;28;20040;-54
2022/04/11 06:50:23;;;;;;;9.73;2.30;;;;;;;11.59;51.94;101210.03;5051379;28;20079;-54
2022/04/11 06:52:49;;;;;;;8.60;2.05;;;;;;;11.62;51.22;101204.28;5050530;28;20032;-54
2022/04/11 06:55:15;;;;;;;5.35;2.28;;;;;;;11.54;52.24;101204.47;5050814;28;20146;-55
2022/04/11 06:57:41;;;;;;;5.75;2.03;;;;;;;11.57;52.10;101198.72;5050168;28;20029;-54
2022/04/11 07:00:08;;;;;;;7.50;2.05;;;;;;;11.29;53.33;101199.69;5051138;28;20071;-54
2022/04/11 07:02:35;;;;;;;5.32;2.05;;;;;;;11.47;52.04;101200.94;5050740;28;20040;-54
2022/04/11 07:05:02;;;;;;;6.97;2.42;;;;;;;11.29;53.16;101199.69;5051205;28;20029;-54
2022/04/11 07:07:28;;;;;;;8.55;2.50;;;;;;;11.33;52.92;101197.44;5050275;28;20025;-54
2022/04/11 07:09:55;;;;;;;9.02;2.10;;;;;;;11.16;53.79;101188.06;5051471;28;20025;-54
2022/04/11 07:12:21;;;;;;;4.72;1.98;;;;;;;11.28;53.00;101187.31;5049717;28;20021;-55
2022/04/11 07:14:47;;;;;;;7.00;2.30;;;;;;;11.15;53.07;101197.97;5051173;28;20028;-54
2022/04/11 07:17:13;;;;;;;5.32;1.75;;;;;;;10.98;54.32;101208.22;5050370;28;20044;-53
2022/04/11 07:19:40;;;;;;;6.05;1.90;;;;;;;10.94;54.14;101203.44;5051023;28;20540;-54
2022/04/11 07:22:06;;;;;;;10.77;2.05;;;;;;;10.95;54.08;101202.44;5050279;28;20033;-54
2022/04/11 07:24:32;;;;;;;5.38;2.40;;;;;;;10.97;53.77;101185.13;5054081;28;20082;-54
2022/04/11 07:26:58;;;;;;;7.60;2.05;;;;;;;10.95;53.77;101194.41;5053376;28;20067;-53
2022/04/11 07:29:26;;;;;;;3.67;1.52;;;;;;;10.85;54.21;101202.81;5047548;28;20037;-53
2022/04/11 07:31:52;;;;;;;5.68;1.98;;;;;;;10.92;53.31;101200.97;5053768;28;20515;-49
2022/04/11 07:34:18;;;;;;;5.38;1.65;;;;;;;10.98;53.67;101191.31;5054672;28;20032;-52
2022/04/11 07:36:44;;;;;;;4.40;1.90;;;;;;;10.86;54.09;101192.91;5054039;28;20036;-52
2022/04/11 07:39:13;;;;;;;7.13;1.92;;;;;;;11.07;53.46;101182.09;5054529;28;20029;-52
2022/04/11 07:41:39;;;;;;;7.25;1.75;;;;;;;11.01;53.21;101183.72;5054332;28;20104;-53
2022/04/11 07:44:05;;;;;;;7.05;1.98;;;;;;;11.08;53.11;101186.41;5054136;28;20040;-52
2022/04/11 07:46:32;;;;;;;6.70;2.17;;;;;;;11.11;53.11;101212.81;5054485;28;20473;-53
2022/04/11 07:48:58;;;;;;;4.72;1.75;;;;;;;11.04;53.25;101217.28;5053406;28;20021;-53
2022/04/11 07:51:24;;;;;;;6.25;1.80;;;;;;;11.13;52.90;101223.31;5054352;28;20037;-53
2022/04/11 07:53:50;;;;;;;4.80;1.88;;;;;;;11.12;52.15;101206.44;5053415;28;20115;-53
2022/04/11 07:56:16;;;;;;;2.80;1.42;;;;;;;11.00;52.57;101200.00;5053869;28;20403;-53
2022/04/11 07:58:43;;;;;;;5.10;2.03;;;;;;;11.10;52.37;101187.03;5053068;28;20029;-53
2022/04/11 08:01:16;;;;;;;5.50;1.70;;;;;;;11.07;52.49;101192.81;5054146;28;20362;-53
2022/04/11 08:03:44;;;;;;;6.82;2.10;;;;;;;11.17;52.17;101187.91;5053623;28;20021;-52
2022/04/11 08:06:10;;;;;;;6.88;2.05;;;;;;;11.02;52.29;101189.91;5053396;28;20421;-52
2022/04/11 08:08:36;;;;;;;5.55;1.30;;;;;;;10.90;52.39;101208.38;5053781;28;20033;-52
2022/04/11 08:11:03;;;;;;;5.22;1.65;;;;;;;10.75;52.88;101207.69;5053032;28;20025;-53
2022/04/11 08:13:29;;;;;;;3.08;1.50;;;;;;;10.72;52.11;101208.09;5054075;28;20045;-54
2022/04/11 08:15:55;;;;;;;3.45;1.38;;;;;;;10.78;51.85;101218.03;5053113;28;20104;-53
2022/04/11 08:18:21;;;;;;;9.38;2.17;;;;;;;10.76;52.21;101220.03;5053100;28;20090;-54
2022/04/11 08:20:47;;;;;;;4.20;1.50;;;;;;;10.69;52.54;101211.97;5053878;28;20052;-53
2022/04/11 08:23:13;;;;;;;2.47;1.17;;;;;;;10.61;52.50;101204.13;5052858;28;20021;-54
2022/04/11 08:25:40;;;;;;;5.72;1.20;;;;;;;10.68;52.31;101204.16;5053758;28;20500;-54
2022/04/11 08:28:06;;;;;;;5.10;1.42;;;;;;;10.63;52.83;101204.75;5049225;28;20029;-54
2022/04/11 08:30:32;;;;;;;7.50;1.50;;;;;;;10.67;52.25;101192.63;5047251;28;20045;-53
2022/04/11 08:32:58;;;;;;;3.58;1.55;;;;;;;10.79;51.82;101201.75;5052553;28;20049;-54
2022/04/11 08:35:24;;;;;;;7.95;1.30;;;;;;;10.91;52.04;101206.53;5053283;28;20037;-54
2022/04/11 08:37:51;;;;;;;3.00;1.40;;;;;;;10.89;51.87;101200.56;5052578;28;20025;-53
2022/04/11 08:40:19;;;;;;;4.45;1.40;;;;;;;11.00;51.33;101203.50;5053388;28;20025;-54
2022/04/11 08:42:50;;;;;;;4.72;1.30;;;;;;;10.92;51.58;101202.81;5035100;28;20126;-54
2022/04/11 08:45:19;;;;;;;5.47;1.75;;;;;;;10.84;51.67;101190.44;5053694;28;20033;-53
2022/04/11 08:47:47;;;;;;;3.38;1.23;;;;;;;10.89;51.17;101176.47;5052435;28;20486;-54
2022/04/11 08:50:13;;;;;;;5.95;1.40;;;;;;;10.95;50.66;101162.28;5053303;28;20079;-53
2022/04/11 08:52:41;;;;;;;4.43;1.30;;;;;;;11.08;50.03;101159.63;5052334;28;20516;-54
2022/04/11 08:55:08;;;;;;;5.32;1.50;;;;;;;11.00;50.44;101163.31;5052791;28;20388;-54
2022/04/11 08:57:38;;;;;;;3.63;1.10;;;;;;;11.03;50.53;101172.78;5051370;28;20025;-54
2022/04/11 09:00:13;;;;;;;3.30;1.33;;;;;;;11.10;50.71;101169.13;5053287;28;20029;-53
2022/04/11 09:02:43;;;;;;;1.92;1.00;;;;;;;11.19;50.01;101177.78;5052702;28;20484;-54
2022/04/11 09:05:11;;;;;;;2.35;1.25;;;;;;;11.29;50.11;101172.88;5053263;28;20053;-55
2022/04/11 09:07:46;;;;;;;1.77;0.90;;;;;;;11.30;49.90;101171.03;5052257;28;20040;-53
2022/04/11 09:10:28;;;;;;;2.65;1.02;;;;;;;11.19;50.34;101176.97;5052953;28;20029;-54
2022/04/11 09:13:02;;;;;;;6.03;1.40;;;;;;;11.21;50.99;101181.09;5052826;28;20025;-53
2022/04/11 09:15:29;;;;;;;5.07;1.13;;;;;;;11.21;50.64;101189.13;5052494;28;20119;-54
2022/04/11 09:17:57;;;;;;;4.70;1.15;;;;;;;11.03;51.40;101188.88;5052494;28;20069;-52
2022/04/11 09:20:28;;;;;;;1.80;0.80;;;;;;;11.10;50.88;101189.72;5053046;28;20074;-52
2022/04/11 09:22:54;;;;;;;3.03;0.85;;;;;;;11.07;51.11;101185.59;5051650;28;20033;-53
2022/04/11 09:25:23;;;;;;;2.47;1.02;;;;;;;11.15;50.60;101181.06;5052015;28;20029;-53
2022/04/11 09:28:03;;;;;;;4.07;1.00;;;;;;;11.10;51.13;101179.00;5031963;28;20443;-54
2022/04/11 09:30:33;;;;;;;1.45;0.85;;;;;;;11.01;51.44;101189.06;5035395;28;20025;-52
2022/04/11 09:33:01;;;;;;;2.63;0.75;;;;;;;10.95;51.69;101194.41;5052318;28;20512;-52
2022/04/11 09:35:36;;;;;;;1.27;0.88;;;;;;;10.96;51.70;101199.56;5050341;28;20028;-53
2022/04/11 09:38:15;;;;;;;4.18;1.00;;;;;;;10.95;51.39;101202.44;5052148;28;20047;-52
2022/04/11 09:40:50;;;;;;;1.25;0.70;;;;;;;10.95;51.90;101202.44;5051692;28;20106;-53
2022/04/11 09:43:18;;;;;;;2.33;1.13;;;;;;;10.92;51.77;101208.19;5052454;28;20025;-53
2022/04/11 09:45:48;;;;;;;1.90;0.80;;;;;;;11.06;51.13;101208.06;5051015;28;20511;-52
2022/04/11 09:48:21;;;;;;;2.58;1.20;;;;;;;10.97;51.99;101213.78;5052004;28;20036;-52
2022/04/11 09:50:50;;;;;;;3.83;0.70;;;;;;;11.04;51.95;101215.44;5051804;28;20536;-52
2022/04/11 09:53:24;;;;;;;2.78;0.80;;;;;;;11.19;52.30;101219.84;5052080;28;20059;-52
2022/04/11 09:55:53;;;;;;;3.60;1.00;;;;;;;11.04;52.99;101212.75;5051444;28;20080;-53
2022/04/11 09:58:20;;;;;;;2.65;0.98;;;;;;;11.03;52.62;101210.28;5051879;28;20112;-52
2022/04/11 10:00:48;;;;;;;3.47;0.93;;;;;;;10.98;52.57;101207.38;5050818;28;20086;-52
2022/04/11 10:03:14;;;;;;;3.53;1.13;;;;;;;10.87;52.78;101198.06;5052258;28;20025;-52
2022/04/11 10:05:42;;;;;;;5.20;1.10;;;;;;;10.94;53.03;101195.41;5051256;28;20025;-52
2022/04/11 10:08:11;;;;;;;2.75;0.90;;;;;;;11.07;52.84;101196.31;5051408;28;20029;-52
2022/04/11 10:10:40;;;;;;;6.60;1.23;;;;;;;11.19;52.83;101193.03;5051268;28;20021;-52
2022/04/11 10:13:09;;;;;;;3.92;1.40;;;;;;;11.20;52.92;101192.84;5051703;28;20033;-53
2022/04/11 10:15:40;;;;;;;3.55;1.17;;;;;;;11.27;52.98;101201.75;5051001;28;20112;-52
2022/04/11 10:18:08;;;;;;;3.97;1.02;;;;;;;11.27;53.39;101201.75;5051683;28;20028;-53
2022/04/11 10:20:37;;;;;;;3.42;0.80;;;;;;;11.17;54.01;101198.63;5050310;28;20040;-51
2022/04/11 10:23:04;;;;;;;5.60;1.17;;;;;;;11.25;53.46;101194.91;5051528;28;20028;-52
2022/04/11 10:25:37;;;;;;;2.60;1.30;;;;;;;11.05;54.30;101209.09;5051023;28;20035;-53
2022/04/11 10:28:18;;;;;;;2.88;1.20;;;;;;;11.00;55.14;101200.00;5048321;28;20052;-53
2022/04/11 10:30:46;;;;;;;4.47;1.25;;;;;;;11.07;54.87;101216.91;5050100;28;20068;-52
2022/04/11 10:33:13;;;;;;;4.53;1.58;;;;;;;10.94;55.90;101206.97;5051492;28;20132;-52
2022/04/11 10:35:43;;;;;;;2.15;1.08;;;;;;;10.97;56.09;101209.25;5050608;28;20119;-52
2022/04/11 10:38:12;;;;;;;5.45;1.63;;;;;;;10.94;56.36;101208.78;5051291;28;20052;-53
2022/04/11 10:40:48;;;;;;;4.63;1.50;;;;;;;10.94;56.68;101212.34;5050952;28;20415;-52
2022/04/11 10:43:17;;;;;;;3.00;1.40;;;;;;;10.86;57.60;101207.13;5051588;28;20085;-52
2022/04/11 10:45:57;;;;;;;3.47;1.13;;;;;;;10.87;56.71;101202.59;5050905;28;20033;-52
2022/04/11 10:48:56;;;;;;;4.32;1.33;;;;;;;10.90;57.85;101204.88;5050475;28;20029;-53
2022/04/11 10:51:22;;;;;;;6.10;1.65;;;;;;;10.79;58.42;101203.59;5051063;28;20111;-53
2022/04/11 10:54:17;;;;;;;5.35;1.88;;;;;;;10.80;58.10;101195.38;5050153;28;20033;-53
2022/04/11 10:56:55;;;;;;;5.95;1.42;;;;;;;10.78;58.96;101201.94;5045408;28;20369;-53
2022/04/11 10:59:26;;;;;;;10.23;2.00;;;;;;;10.80;58.98;101195.38;5054944;28;20420;-53
2022/04/11 11:01:59;;;;;;;5.57;1.25;;;;;;;10.76;58.89;101187.91;5055781;28;20029;-52
2022/04/11 11:04:30;;;;;;;4.70;1.75;;;;;;;10.76;58.65;101198.63;5054828;28;20472;-52
2022/04/11 11:07:23;;;;;;;6.60;1.50;;;;;;;10.81;58.79;101190.81;5054951;28;20036;-52
2022/04/11 11:09:54;;;;;;;5.47;1.73;;;;;;;10.77;59.24;101179.72;5035323;28;20116;-53
2022/04/11 11:12:21;;;;;;;3.80;1.40;;;;;;;10.97;58.81;101179.78;5044506;28;20032;-53
2022/04/11 11:14:47;;;;;;;4.70;1.83;;;;;;;11.03;58.29;101187.00;5054234;28;20080;-52
2022/04/11 11:17:14;;;;;;;4.50;1.70;;;;;;;11.18;57.58;101176.16;5052888;28;20025;-52
2022/04/11 11:20:08;;;;;;;4.40;1.70;;;;;;;11.06;59.11;101172.41;5035158;28;20022;-53
2022/04/11 11:23:15;;;;;;;4.85;1.55;;;;;;;11.10;58.83;101170.94;5047661;28;20564;-53
2022/04/11 11:25:42;;;;;;;6.47;1.73;;;;;;;11.18;58.68;101164.59;5042299;28;20056;-52